createdAt,value
2022-08-12T00:00:32.961Z,60.42
2022-08-12T00:02:04.399Z,61.62
2022-08-12T00:02:32.970Z,61.25
2022-08-12T00:03:33.040Z,60.55
2022-08-12T00:04:32.975Z,61.75
2022-08-12T00:05:32.981Z,61.48
2022-08-12T00:06:32.998Z,61.18
2022-08-12T00:07:32.988Z,61.08
2022-08-12T00:08:36.977Z,62.58
2022-08-12T00:09:32.993Z,63.48
2022-08-12T00:10:32.995Z,61.38
2022-08-12T00:11:33.001Z,61.68
2022-08-12T00:12:33.003Z,61.18
2022-08-12T00:13:33.013Z,62.92
2022-08-12T00:14:33.012Z,61.38
2022-08-12T00:15:33.012Z,62.31
2022-08-12T00:16:33.016Z,62.61
2022-08-12T00:17:33.020Z,61.51
2022-08-12T00:18:33.022Z,63.42
2022-08-12T00:19:33.025Z,63.21
2022-08-12T00:20:33.036Z,63.21
2022-08-12T00:21:33.033Z,63.31
2022-08-12T00:22:33.038Z,63.34
2022-08-12T00:23:33.038Z,63.04
2022-08-12T00:24:33.044Z,63.24
2022-08-12T00:26:01.278Z,63.54
2022-08-12T00:26:33.050Z,63.14
2022-08-12T00:27:43.854Z,63.64
2022-08-12T00:28:33.057Z,63.75
2022-08-12T00:29:33.060Z,63.45
2022-08-12T00:30:33.067Z,63.75
2022-08-12T00:31:33.064Z,63.45
2022-08-12T00:32:35.938Z,64.04
2022-08-12T00:33:38.750Z,63.37
2022-08-12T00:34:33.075Z,62.37
2022-08-12T00:35:36.867Z,63.07
2022-08-12T00:36:35.904Z,62.77
2022-08-12T00:37:33.084Z,63.47
2022-08-12T00:38:33.084Z,62.77
2022-08-12T00:39:33.161Z,63.37
2022-08-12T00:40:33.094Z,63.37
2022-08-12T00:41:33.096Z,63.07
2022-08-12T00:42:33.102Z,63.60
2022-08-12T00:43:33.104Z,62.67
2022-08-12T00:44:33.106Z,63.90
2022-08-12T00:45:33.107Z,63.50
2022-08-12T00:46:33.108Z,63.60
2022-08-12T00:47:33.116Z,64.31
2022-08-12T00:48:33.115Z,63.81
2022-08-12T00:49:33.120Z,65.04
2022-08-12T00:50:33.120Z,65.04
2022-08-12T00:51:33.124Z,64.91
2022-08-12T00:52:33.133Z,65.14
2022-08-12T00:53:33.131Z,65.21
2022-08-12T00:54:33.135Z,64.74
2022-08-12T00:55:33.135Z,65.21
2022-08-12T00:56:33.588Z,64.91
2022-08-12T00:57:33.143Z,65.04
2022-08-12T00:58:33.146Z,65.71
2022-08-12T00:59:33.145Z,65.31
2022-08-12T01:00:33.149Z,65.01
2022-08-12T01:02:10.296Z,64.51
2022-08-12T01:02:33.155Z,65.01
2022-08-12T01:03:33.170Z,65.04
2022-08-12T01:04:33.163Z,64.34
2022-08-12T01:05:33.166Z,65.07
2022-08-12T01:06:33.170Z,65.57
2022-08-12T01:07:33.170Z,65.80
2022-08-12T01:08:33.173Z,66.20
2022-08-12T01:09:33.183Z,66.31
2022-08-12T01:10:33.410Z,66.31
2022-08-12T01:11:33.256Z,66.11
2022-08-12T01:12:33.183Z,66.00
2022-08-12T01:13:33.187Z,67.04
2022-08-12T01:14:33.188Z,65.94
2022-08-12T01:15:33.190Z,66.54
2022-08-12T01:16:33.199Z,67.74
2022-08-12T01:17:33.196Z,67.04
2022-08-12T01:18:33.204Z,66.54
2022-08-12T01:19:33.205Z,66.97
2022-08-12T01:20:33.207Z,67.07
2022-08-12T01:21:33.207Z,67.27
2022-08-12T01:22:33.208Z,67.98
2022-08-12T01:23:33.214Z,67.38
2022-08-12T01:24:33.220Z,67.47
2022-08-12T01:25:33.222Z,67.78
2022-08-12T01:26:33.221Z,66.97
2022-08-12T01:27:33.224Z,67.58
2022-08-12T01:28:33.229Z,67.78
2022-08-12T01:29:33.572Z,66.37
2022-08-12T01:30:33.230Z,67.07
2022-08-12T01:31:33.232Z,67.88
2022-08-12T01:32:33.236Z,67.78
2022-08-12T01:33:33.239Z,68.48
2022-08-12T01:34:36.400Z,68.78
2022-08-12T01:35:33.245Z,69.29
2022-08-12T01:36:33.246Z,68.78
2022-08-12T01:37:33.247Z,68.62
2022-08-12T01:38:33.249Z,69.32
2022-08-12T01:39:33.379Z,69.29
2022-08-12T01:40:37.699Z,69.32
2022-08-12T01:41:33.266Z,69.32
2022-08-12T01:42:33.263Z,69.15
2022-08-12T01:43:33.264Z,69.96
2022-08-12T01:44:33.264Z,69.56
2022-08-12T01:45:42.887Z,69.62
2022-08-12T01:46:33.266Z,69.65
2022-08-12T01:47:33.271Z,69.56
2022-08-12T01:48:33.271Z,70.26
2022-08-12T01:49:33.278Z,69.65
2022-08-12T01:50:33.292Z,69.15
2022-08-12T01:52:21.869Z,68.85
2022-08-12T01:52:33.292Z,69.96
2022-08-12T01:53:33.285Z,69.59
2022-08-12T01:54:33.284Z,70.39
2022-08-12T01:55:33.293Z,69.89
2022-08-12T01:56:33.639Z,69.38
2022-08-12T01:57:59.575Z,69.99
2022-08-12T01:58:33.293Z,69.99
2022-08-12T01:59:33.297Z,69.79
2022-08-12T02:00:35.954Z,70.32
2022-08-12T02:01:33.355Z,69.82
2022-08-12T02:02:33.302Z,70.29
2022-08-12T02:03:33.310Z,69.99
2022-08-12T02:04:33.308Z,69.92
2022-08-12T02:05:33.371Z,70.02
2022-08-12T02:06:33.314Z,70.83
2022-08-12T02:07:33.316Z,70.12
2022-08-12T02:08:33.315Z,69.62
2022-08-12T02:09:33.321Z,70.42
2022-08-12T02:10:50.058Z,69.82
2022-08-12T02:11:33.321Z,70.53
2022-08-12T02:12:33.324Z,69.92
2022-08-12T02:13:48.822Z,69.92
2022-08-12T02:14:33.329Z,69.82
2022-08-12T02:15:33.331Z,70.73
2022-08-12T02:16:33.330Z,71.03
2022-08-12T02:17:55.436Z,70.15
2022-08-12T02:18:33.336Z,70.12
2022-08-12T02:19:33.341Z,71.06
2022-08-12T02:20:35.295Z,72.34
2022-08-12T02:21:33.343Z,71.57
2022-08-12T02:22:33.345Z,70.53
2022-08-12T02:23:33.347Z,70.73
2022-08-12T02:24:33.350Z,70.12
2022-08-12T02:25:33.355Z,71.06
2022-08-12T02:26:33.351Z,70.46
2022-08-12T02:27:33.359Z,71.97
2022-08-12T02:28:33.363Z,70.46
2022-08-12T02:29:33.358Z,71.37
2022-08-12T02:30:42.094Z,71.17
2022-08-12T02:31:33.366Z,71.91
2022-08-12T02:32:33.363Z,71.80
2022-08-12T02:33:33.368Z,71.50
2022-08-12T02:34:33.367Z,72.81
2022-08-12T02:35:33.371Z,73.11
2022-08-12T02:36:33.371Z,72.88
2022-08-12T02:37:33.376Z,73.01
2022-08-12T02:38:33.375Z,72.47
2022-08-12T02:39:33.475Z,71.97
2022-08-12T02:40:33.381Z,72.67
2022-08-12T02:41:33.381Z,72.38
2022-08-12T02:42:33.383Z,72.31
2022-08-12T02:43:33.391Z,72.78
2022-08-12T02:44:33.389Z,72.51
2022-08-12T02:45:33.391Z,71.80
2022-08-12T02:46:33.390Z,72.81
2022-08-12T02:47:59.391Z,72.20
2022-08-12T02:48:33.399Z,73.11
2022-08-12T02:49:33.400Z,73.01
2022-08-12T02:50:33.398Z,73.62
2022-08-12T02:51:33.402Z,73.42
2022-08-12T02:52:33.401Z,73.52
2022-08-12T02:53:33.407Z,72.71
2022-08-12T02:54:33.404Z,73.11
2022-08-12T02:55:34.935Z,72.51
2022-08-12T02:56:33.608Z,71.80
2022-08-12T02:57:33.412Z,71.80
2022-08-12T02:58:33.709Z,71.91
2022-08-12T02:59:33.416Z,71.80
2022-08-12T03:00:33.415Z,71.91
2022-08-12T03:01:33.473Z,71.40
2022-08-12T03:02:33.419Z,71.20
2022-08-12T03:03:33.423Z,72.51
2022-08-12T03:04:33.422Z,72.34
2022-08-12T03:05:33.430Z,72.14
2022-08-12T03:06:33.425Z,72.98
2022-08-12T03:07:55.810Z,73.05
2022-08-12T03:08:33.430Z,72.88
2022-08-12T03:09:38.178Z,73.58
2022-08-12T03:10:37.104Z,73.52
2022-08-12T03:11:33.438Z,74.19
2022-08-12T03:12:34.096Z,74.90
2022-08-12T03:13:33.456Z,74.73
2022-08-12T03:14:33.441Z,75.20
2022-08-12T03:15:33.443Z,75.81
2022-08-12T03:16:33.597Z,75.00
2022-08-12T03:17:33.450Z,75.20
2022-08-12T03:18:33.446Z,75.81
2022-08-12T03:19:33.452Z,74.69
2022-08-12T03:20:33.451Z,74.80
2022-08-12T03:21:55.335Z,75.20
2022-08-12T03:22:33.455Z,74.49
2022-08-12T03:23:33.456Z,75.00
2022-08-12T03:24:33.484Z,74.49
2022-08-12T03:25:33.458Z,74.90
2022-08-12T03:26:33.459Z,74.43
2022-08-12T03:27:33.461Z,74.73
2022-08-12T03:28:33.464Z,75.84
2022-08-12T03:29:33.468Z,74.84
2022-08-12T03:30:33.464Z,74.93
2022-08-12T03:31:33.475Z,76.25
2022-08-12T03:32:36.025Z,74.84
2022-08-12T03:33:33.477Z,74.43
2022-08-12T03:34:33.471Z,75.44
2022-08-12T03:35:41.061Z,75.13
2022-08-12T03:36:33.606Z,75.64
2022-08-12T03:37:33.480Z,75.24
2022-08-12T03:38:33.484Z,75.98
2022-08-12T03:39:36.174Z,75.27
2022-08-12T03:40:33.482Z,75.57
2022-08-12T03:41:33.483Z,76.18
2022-08-12T03:42:33.483Z,75.98
2022-08-12T03:43:33.486Z,76.22
2022-08-12T03:44:33.486Z,75.81
2022-08-12T03:45:33.491Z,76.52
2022-08-12T03:46:33.491Z,76.42
2022-08-12T03:47:33.493Z,76.48
2022-08-12T03:48:33.495Z,76.62
2022-08-12T03:49:33.496Z,76.52
2022-08-12T03:50:33.494Z,77.09
2022-08-12T03:51:33.497Z,76.28
2022-08-12T03:52:33.501Z,76.52
2022-08-12T03:53:33.513Z,76.08
2022-08-12T03:54:33.500Z,76.08
2022-08-12T03:55:33.505Z,75.88
2022-08-12T03:56:33.856Z,76.18
2022-08-12T03:57:33.512Z,76.52
2022-08-12T03:58:33.508Z,76.89
2022-08-12T03:59:33.511Z,76.72
2022-08-12T04:00:33.573Z,75.88
2022-08-12T04:01:33.517Z,75.98
2022-08-12T04:02:33.512Z,76.18
2022-08-12T04:03:33.521Z,75.57
2022-08-12T04:04:33.518Z,75.78
2022-08-12T04:05:33.518Z,76.18
2022-08-12T04:06:35.171Z,75.48
2022-08-12T04:07:33.522Z,75.64
2022-08-12T04:08:33.519Z,76.04
2022-08-12T04:09:33.522Z,75.88
2022-08-12T04:10:33.523Z,74.77
2022-08-12T04:11:33.526Z,75.78
2022-08-12T04:12:33.570Z,76.08
2022-08-12T04:13:33.529Z,75.37
2022-08-12T04:14:33.526Z,75.27
2022-08-12T04:15:33.528Z,74.90
2022-08-12T04:16:33.529Z,75.71
2022-08-12T04:17:33.534Z,76.52
2022-08-12T04:18:33.542Z,77.73
2022-08-12T04:19:33.535Z,77.03
2022-08-12T04:20:33.537Z,77.37
2022-08-12T04:21:33.546Z,77.67
2022-08-12T04:22:33.546Z,76.97
2022-08-12T04:23:33.542Z,77.97
2022-08-12T04:24:33.545Z,77.26
2022-08-12T04:25:33.550Z,77.26
2022-08-12T04:26:33.558Z,76.26
2022-08-12T04:27:33.551Z,77.37
2022-08-12T04:28:33.546Z,77.37
2022-08-12T04:30:29.308Z,77.06
2022-08-12T04:30:33.893Z,77.43
2022-08-12T04:31:33.555Z,77.53
2022-08-12T04:32:33.551Z,77.64
2022-08-12T04:33:33.550Z,76.26
2022-08-12T04:34:33.551Z,76.93
2022-08-12T04:35:33.554Z,77.06
2022-08-12T04:36:33.557Z,76.56
2022-08-12T04:37:59.399Z,77.37
2022-08-12T04:38:33.557Z,78.28
2022-08-12T04:39:33.618Z,78.28
2022-08-12T04:40:33.568Z,77.87
2022-08-12T04:41:33.563Z,77.67
2022-08-12T04:42:33.561Z,78.08
2022-08-12T04:43:59.746Z,77.87
2022-08-12T04:44:33.563Z,78.34
2022-08-12T04:45:33.569Z,78.58
2022-08-12T04:46:34.592Z,78.88
2022-08-12T04:47:33.568Z,78.17
2022-08-12T04:48:33.568Z,78.38
2022-08-12T04:49:33.570Z,79.75
2022-08-12T04:50:36.295Z,78.68
2022-08-12T04:51:33.575Z,78.55
2022-08-12T04:52:35.038Z,78.75
2022-08-12T04:53:33.573Z,78.44
2022-08-12T04:54:33.611Z,79.35
2022-08-12T04:55:33.603Z,78.64
2022-08-12T04:56:35.524Z,78.95
2022-08-12T04:57:33.580Z,78.55
2022-08-12T04:58:33.576Z,78.14
2022-08-12T04:59:48.502Z,78.24
2022-08-12T05:00:33.578Z,77.50
2022-08-12T05:01:33.582Z,77.70
2022-08-12T05:02:33.732Z,77.50
2022-08-12T05:03:46.539Z,77.90
2022-08-12T05:04:33.582Z,77.09
2022-08-12T05:05:36.131Z,77.80
2022-08-12T05:06:33.583Z,77.56
2022-08-12T05:07:33.588Z,77.56
2022-08-12T05:08:33.604Z,77.09
2022-08-12T05:10:00.925Z,77.50
2022-08-12T05:10:35.837Z,77.70
2022-08-12T05:11:33.594Z,77.86
2022-08-12T05:12:33.592Z,77.86
2022-08-12T05:13:33.596Z,77.56
2022-08-12T05:14:37.509Z,77.36
2022-08-12T05:15:33.597Z,77.97
2022-08-12T05:16:36.041Z,77.62
2022-08-12T05:17:33.600Z,77.73
2022-08-12T05:18:33.600Z,77.32
2022-08-12T05:19:33.600Z,76.92
2022-08-12T05:20:33.601Z,77.53
2022-08-12T05:21:33.603Z,78.03
2022-08-12T05:22:37.097Z,78.09
2022-08-12T05:23:33.606Z,77.69
2022-08-12T05:24:33.610Z,77.79
2022-08-12T05:25:33.608Z,78.06
2022-08-12T05:26:33.609Z,78.46
2022-08-12T05:27:33.613Z,78.66
2022-08-12T05:28:33.621Z,78.26
2022-08-12T05:30:07.972Z,77.86
2022-08-12T05:30:33.612Z,78.36
2022-08-12T05:31:40.461Z,78.42
2022-08-12T05:32:33.616Z,78.52
2022-08-12T05:33:33.618Z,78.42
2022-08-12T05:34:33.617Z,78.42
2022-08-12T05:35:33.619Z,78.22
2022-08-12T05:36:33.620Z,78.63
2022-08-12T05:37:33.625Z,78.69
2022-08-12T05:38:33.623Z,78.59
2022-08-12T05:39:33.692Z,78.19
2022-08-12T05:40:33.627Z,78.19
2022-08-12T05:41:33.629Z,78.28
2022-08-12T05:42:34.537Z,78.28
2022-08-12T05:43:33.633Z,78.39
2022-08-12T05:44:33.633Z,78.19
2022-08-12T05:45:33.633Z,78.25
2022-08-12T05:46:33.635Z,78.65
2022-08-12T05:47:53.105Z,78.75
2022-08-12T05:48:33.638Z,79.02
2022-08-12T05:49:33.637Z,78.81
2022-08-12T05:50:33.639Z,78.91
2022-08-12T05:51:40.782Z,78.61
2022-08-12T05:52:33.659Z,78.51
2022-08-12T05:53:33.644Z,78.51
2022-08-12T05:54:54.712Z,78.17
2022-08-12T05:55:33.645Z,78.27
2022-08-12T05:56:33.850Z,78.01
2022-08-12T05:57:33.650Z,78.27
2022-08-12T05:58:33.655Z,78.47
2022-08-12T05:59:33.652Z,78.58
2022-08-12T06:00:33.656Z,78.98
2022-08-12T06:02:12.106Z,78.98
2022-08-12T06:02:33.665Z,78.94
2022-08-12T06:03:33.831Z,78.67
2022-08-12T06:04:33.657Z,78.67
2022-08-12T06:05:33.664Z,78.74
2022-08-12T06:06:37.685Z,78.47
2022-08-12T06:07:59.885Z,78.54
2022-08-12T06:08:33.669Z,78.34
2022-08-12T06:09:33.668Z,78.03
2022-08-12T06:10:33.732Z,78.14
2022-08-12T06:11:33.672Z,78.14
2022-08-12T06:12:33.673Z,78.23
2022-08-12T06:13:53.196Z,78.03
2022-08-12T06:14:33.682Z,78.03
2022-08-12T06:15:33.685Z,77.59
2022-08-12T06:16:33.688Z,77.59
2022-08-12T06:17:33.682Z,76.79
2022-08-12T06:18:33.690Z,77.39
2022-08-12T06:20:26.299Z,77.20
2022-08-12T06:20:34.410Z,76.39
2022-08-12T06:21:33.686Z,76.59
2022-08-12T06:22:33.693Z,76.05
2022-08-12T06:23:33.691Z,76.39
2022-08-12T06:24:33.696Z,76.05
2022-08-12T06:25:33.692Z,76.35
2022-08-12T06:26:33.697Z,76.76
2022-08-12T06:27:33.695Z,76.65
2022-08-12T06:28:33.699Z,76.35
2022-08-12T06:30:10.300Z,76.56
2022-08-12T06:30:37.867Z,75.95
2022-08-12T06:31:33.702Z,76.45
2022-08-12T06:32:34.562Z,76.05
2022-08-12T06:33:59.898Z,75.62
2022-08-12T06:35:22.986Z,76.12
2022-08-12T06:35:48.532Z,76.12
2022-08-12T06:36:33.886Z,75.31
2022-08-12T06:37:33.718Z,75.51
2022-08-12T06:38:33.717Z,75.71
2022-08-12T06:39:33.762Z,75.62
2022-08-12T06:40:33.728Z,75.18
2022-08-12T06:41:33.722Z,75.11
2022-08-12T06:42:33.726Z,74.71
2022-08-12T06:44:07.188Z,75.42
2022-08-12T06:44:33.727Z,75.08
2022-08-12T06:45:45.417Z,74.88
2022-08-12T06:46:33.732Z,74.88
2022-08-12T06:47:33.734Z,74.77
2022-08-12T06:48:33.744Z,74.88
2022-08-12T06:49:33.742Z,74.04
2022-08-12T06:50:36.868Z,74.44
2022-08-12T06:51:33.743Z,74.94
2022-08-12T06:52:33.748Z,75.04
2022-08-12T06:53:33.747Z,75.64
2022-08-12T06:54:33.762Z,75.84
2022-08-12T06:55:33.749Z,75.34
2022-08-12T06:57:02.505Z,74.30
2022-08-12T06:58:05.099Z,74.90
2022-08-12T06:58:33.763Z,75.34
2022-08-12T06:59:33.756Z,75.60
2022-08-12T07:00:33.812Z,74.20
2022-08-12T07:01:33.786Z,74.10
2022-08-12T07:02:37.041Z,73.60
2022-08-12T07:03:33.767Z,72.86
2022-08-12T07:04:36.792Z,72.47
2022-08-12T07:05:33.771Z,71.56
2022-08-12T07:06:33.773Z,71.56
2022-08-12T07:07:33.777Z,72.36
2022-08-12T07:08:33.780Z,71.77
2022-08-12T07:10:00.007Z,70.16
2022-08-12T07:10:33.783Z,70.03
2022-08-12T07:11:33.789Z,71.93
2022-08-12T07:12:33.789Z,70.73
2022-08-12T07:13:33.790Z,70.19
2022-08-12T07:14:36.426Z,69.69
2022-08-12T07:15:33.795Z,69.99
2022-08-12T07:16:33.799Z,70.69
2022-08-12T07:17:33.800Z,71.09
2022-08-12T07:18:33.804Z,71.00
2022-08-12T07:19:45.149Z,70.89
2022-08-12T07:20:51.866Z,70.89
2022-08-12T07:22:00.192Z,71.09
2022-08-12T07:22:33.815Z,71.09
2022-08-12T07:23:33.816Z,68.55
2022-08-12T07:24:33.818Z,66.66
2022-08-12T07:25:37.743Z,67.25
2022-08-12T07:26:33.824Z,67.86
2022-08-12T07:27:33.832Z,62.95
2022-08-12T07:28:33.826Z,62.92
2022-08-12T07:30:04.032Z,65.12
2022-08-12T07:30:33.833Z,65.19
2022-08-12T07:31:33.857Z,64.19
2022-08-12T07:32:33.838Z,61.59
2022-08-12T07:33:33.840Z,63.89
2022-08-12T07:34:33.855Z,59.77
2022-08-12T07:35:33.845Z,60.46
2022-08-12T07:36:33.851Z,61.43
2022-08-12T07:37:33.854Z,62.73
2022-08-12T07:38:33.927Z,64.53
2022-08-12T07:39:33.912Z,63.30
2022-08-12T07:40:33.876Z,63.80
2022-08-12T07:41:33.877Z,60.91
2022-08-12T07:42:33.867Z,59.01
2022-08-12T07:43:33.867Z,58.98
2022-08-12T07:44:33.879Z,59.78
2022-08-12T07:45:33.875Z,59.58
2022-08-12T07:46:33.877Z,57.95
2022-08-12T07:47:33.879Z,57.95
2022-08-12T07:48:33.888Z,59.15
2022-08-12T07:49:33.895Z,57.73
2022-08-12T07:50:33.891Z,57.73
2022-08-12T07:51:33.898Z,57.10
2022-08-12T07:52:33.898Z,57.90
2022-08-12T07:53:33.902Z,59.19
2022-08-12T07:54:33.904Z,58.89
2022-08-12T07:55:33.905Z,59.49
2022-08-12T07:56:34.063Z,56.68
2022-08-12T07:57:33.914Z,57.07
2022-08-12T07:58:33.913Z,56.68
2022-08-12T07:59:33.926Z,57.57
2022-08-12T08:00:33.923Z,57.24
2022-08-12T08:01:34.026Z,55.05
2022-08-12T08:02:34.052Z,53.06
2022-08-12T08:03:33.930Z,54.63
2022-08-12T08:04:33.943Z,54.13
2022-08-12T08:05:33.941Z,54.24
2022-08-12T08:06:33.944Z,54.41
2022-08-12T08:07:33.944Z,56.00
2022-08-12T08:08:33.952Z,54.18
2022-08-12T08:09:33.953Z,54.60
2022-08-12T08:10:33.958Z,54.78
2022-08-12T08:11:33.995Z,54.28
2022-08-12T08:12:33.970Z,55.35
2022-08-12T08:13:33.972Z,55.85
2022-08-12T08:14:33.977Z,56.44
2022-08-12T08:16:01.119Z,53.53
2022-08-12T08:16:33.981Z,53.14
2022-08-12T08:17:33.984Z,52.12
2022-08-12T08:18:33.991Z,52.12
2022-08-12T08:19:48.574Z,52.61
2022-08-12T08:20:34.016Z,51.52
2022-08-12T08:21:34.000Z,51.10
2022-08-12T08:22:41.354Z,53.19
2022-08-12T08:23:35.182Z,53.28
2022-08-12T08:24:34.016Z,53.36
2022-08-12T08:25:36.146Z,51.28
2022-08-12T08:26:34.033Z,50.58
2022-08-12T08:27:34.034Z,52.47
2022-08-12T08:28:34.041Z,52.44
2022-08-12T08:29:34.038Z,52.34
2022-08-12T08:30:34.042Z,53.13
2022-08-12T08:31:34.049Z,53.03
2022-08-12T08:32:34.053Z,53.01
2022-08-12T08:34:09.292Z,49.84
2022-08-12T08:34:52.995Z,49.84
2022-08-12T08:35:46.270Z,52.41
2022-08-12T08:36:34.076Z,51.12
2022-08-12T08:37:36.326Z,50.81
2022-08-12T08:38:35.392Z,50.09
2022-08-12T08:39:34.165Z,50.48
2022-08-12T08:40:34.100Z,50.38
2022-08-12T08:42:16.029Z,52.44
2022-08-12T08:42:34.115Z,51.65
2022-08-12T08:43:44.642Z,50.76
2022-08-12T08:44:34.126Z,50.95
2022-08-12T08:45:34.136Z,51.54
2022-08-12T08:46:34.144Z,49.17
2022-08-12T08:47:34.146Z,49.87
2022-08-12T08:48:34.156Z,50.04
2022-08-12T08:49:34.338Z,50.73
2022-08-12T08:50:34.172Z,51.15
2022-08-12T08:51:34.179Z,48.85
2022-08-12T08:52:39.701Z,50.56
2022-08-12T08:53:34.190Z,50.76
2022-08-12T08:54:34.201Z,51.75
2022-08-12T08:56:03.251Z,49.40
2022-08-12T08:56:34.412Z,50.06
2022-08-12T08:57:42.847Z,51.97
2022-08-12T08:58:34.226Z,49.19
2022-08-12T08:59:34.230Z,48.97
2022-08-12T09:00:34.239Z,48.18
2022-08-12T09:01:37.870Z,48.75
2022-08-12T09:02:34.250Z,47.56
2022-08-12T09:05:12.845Z,45.89
2022-08-12T09:06:01.663Z,47.56
2022-08-12T09:06:37.337Z,43.88
2022-08-12T09:07:51.945Z,44.09
2022-08-12T09:08:34.292Z,46.95
2022-08-12T09:10:01.996Z,45.67
2022-08-12T09:10:34.304Z,45.86
2022-08-12T09:12:06.821Z,46.75
2022-08-12T09:14:11.253Z,44.68
2022-08-12T09:14:34.328Z,44.97
2022-08-12T09:15:35.377Z,44.38
2022-08-12T09:16:39.422Z,46.66
2022-08-12T09:17:42.275Z,47.03
2022-08-12T09:18:34.388Z,44.65
2022-08-12T09:19:34.354Z,46.04
2022-08-12T09:20:34.362Z,46.45
2022-08-12T09:21:54.361Z,46.63
2022-08-12T09:22:35.111Z,44.28
2022-08-12T09:23:58.601Z,45.05
2022-08-12T09:24:34.390Z,46.44
2022-08-12T09:25:34.389Z,46.63
2022-08-12T09:26:45.804Z,44.46
2022-08-12T09:28:34.435Z,47.15
2022-08-12T09:30:11.235Z,48.14
2022-08-12T09:30:41.410Z,47.07
2022-08-12T09:32:02.723Z,47.56
2022-08-12T09:33:05.108Z,46.58
2022-08-12T09:34:25.212Z,47.78
2022-08-12T09:34:36.422Z,46.89
2022-08-12T09:35:42.565Z,47.09
2022-08-12T09:37:00.007Z,47.09
2022-08-12T09:37:57.713Z,47.29
2022-08-12T09:38:35.391Z,47.39
2022-08-12T09:40:01.425Z,47.29
2022-08-12T09:40:57.817Z,47.69
2022-08-12T09:42:32.852Z,45.31
2022-08-12T09:42:54.108Z,44.80
2022-08-12T09:43:34.555Z,45.19
2022-08-12T09:44:39.250Z,45.29
2022-08-12T09:46:06.761Z,44.50
2022-08-12T09:46:34.932Z,43.80
2022-08-12T09:47:34.512Z,45.47
2022-08-12T09:48:35.085Z,45.67
2022-08-12T09:49:38.551Z,46.78
2022-08-12T09:50:34.531Z,43.71
2022-08-12T09:51:37.211Z,44.09
2022-08-12T09:52:34.539Z,45.57
2022-08-12T09:53:38.294Z,45.27
2022-08-12T09:54:35.416Z,47.56
2022-08-12T09:55:57.322Z,47.27
2022-08-12T09:57:00.985Z,45.00
2022-08-12T09:58:45.998Z,45.68
2022-08-12T09:58:56.961Z,46.89
2022-08-12T10:00:14.854Z,46.60
2022-08-12T10:00:43.124Z,45.71
2022-08-12T10:02:42.036Z,47.19
2022-08-12T10:02:45.045Z,46.20
2022-08-12T10:03:34.639Z,43.93
2022-08-12T10:04:34.679Z,42.74
2022-08-12T10:06:26.532Z,42.62
2022-08-12T10:06:36.150Z,42.32
2022-08-12T10:07:40.316Z,43.02
2022-08-12T10:08:34.629Z,43.71
2022-08-12T10:09:58.212Z,45.09
2022-08-12T10:10:37.602Z,45.49
2022-08-12T10:12:11.908Z,45.12
2022-08-12T10:12:34.645Z,45.41
2022-08-12T10:13:40.154Z,46.80
2022-08-12T10:14:37.050Z,44.74
2022-08-12T10:16:02.180Z,44.74
2022-08-12T10:16:39.333Z,45.63
2022-08-12T10:17:34.672Z,46.42
2022-08-12T10:18:35.771Z,45.73
2022-08-12T10:19:36.588Z,46.33
2022-08-12T10:20:34.689Z,46.92
2022-08-12T10:21:36.095Z,47.44
2022-08-12T10:22:49.324Z,47.41
2022-08-12T10:23:39.827Z,46.35
2022-08-12T10:24:34.709Z,45.75
2022-08-12T10:26:34.464Z,45.93
2022-08-12T10:26:39.081Z,46.82
2022-08-12T10:27:39.472Z,46.42
2022-08-12T10:28:34.731Z,47.02
2022-08-12T10:30:03.155Z,48.90
2022-08-12T10:30:40.712Z,48.50
2022-08-12T10:31:47.182Z,46.92
2022-08-12T10:33:02.162Z,44.56
2022-08-12T10:33:54.065Z,43.57
2022-08-12T10:34:34.763Z,45.63
2022-08-12T10:35:37.910Z,43.75
2022-08-12T10:36:36.116Z,44.56
2022-08-12T10:38:38.882Z,46.84
2022-08-12T10:38:41.439Z,46.74
2022-08-12T10:40:00.080Z,46.45
2022-08-12T10:40:34.938Z,45.75
2022-08-12T10:41:58.207Z,46.84
2022-08-12T10:42:34.815Z,48.85
2022-08-12T10:43:55.447Z,46.67
2022-08-12T10:44:34.814Z,45.97
2022-08-12T10:45:38.235Z,44.89
2022-08-12T10:46:34.827Z,48.45
2022-08-12T10:48:20.353Z,47.16
2022-08-12T10:48:34.951Z,45.08
2022-08-12T10:50:02.792Z,44.17
2022-08-12T10:51:01.680Z,43.48
2022-08-12T10:52:03.815Z,44.15
2022-08-12T10:52:37.951Z,44.64
2022-08-12T10:53:46.040Z,46.50
2022-08-12T10:54:34.865Z,45.93
2022-08-12T10:55:35.557Z,46.03
2022-08-12T10:56:35.523Z,44.54
2022-08-12T10:58:15.561Z,43.46
2022-08-12T10:58:34.885Z,43.85
2022-08-12T11:00:29.206Z,44.32
2022-08-12T11:00:55.262Z,43.04
2022-08-12T11:04:19.243Z,41.85
2022-08-12T11:04:25.126Z,41.24
2022-08-12T11:04:26.121Z,41.33
2022-08-12T11:04:45.421Z,42.62
2022-08-12T11:07:06.906Z,43.59
2022-08-12T11:07:08.650Z,41.83
2022-08-12T11:08:36.511Z,43.21
2022-08-12T11:08:42.268Z,42.72
2022-08-12T11:09:56.495Z,42.52
2022-08-12T11:10:34.975Z,41.81
2022-08-12T11:12:35.506Z,42.70
2022-08-12T11:12:58.988Z,43.10
2022-08-12T11:13:45.738Z,41.02
2022-08-12T11:14:49.157Z,43.37
2022-08-12T11:16:19.543Z,43.87
2022-08-12T11:16:35.376Z,41.89
2022-08-12T11:17:52.117Z,44.75
2022-08-12T11:18:34.991Z,44.36
2022-08-12T11:19:34.999Z,42.58
2022-08-12T11:20:35.007Z,42.88
2022-08-12T11:21:57.727Z,40.63
2022-08-12T11:22:35.207Z,41.00
2022-08-12T11:23:37.042Z,41.99
2022-08-12T11:24:35.033Z,40.61
2022-08-12T11:25:56.141Z,39.32
2022-08-12T11:26:35.040Z,40.90
2022-08-12T11:27:35.112Z,43.17
2022-08-12T11:28:36.966Z,41.10
2022-08-12T11:30:02.000Z,41.91
2022-08-12T11:30:35.055Z,44.09
2022-08-12T11:31:56.287Z,44.87
2022-08-12T11:32:38.452Z,43.91
2022-08-12T11:34:06.720Z,45.09
2022-08-12T11:34:53.832Z,45.39
2022-08-12T11:35:35.087Z,42.32
2022-08-12T11:36:39.373Z,43.02
2022-08-12T11:37:58.283Z,44.70
2022-08-12T11:38:35.068Z,42.54
2022-08-12T11:40:03.463Z,42.74
2022-08-12T11:40:35.081Z,44.23
2022-08-12T11:41:35.090Z,45.90
2022-08-12T11:42:35.320Z,43.73
2022-08-12T11:43:50.489Z,45.61
2022-08-12T11:44:43.157Z,43.55
2022-08-12T11:45:38.974Z,44.15
2022-08-12T11:46:35.117Z,45.71
2022-08-12T11:47:35.131Z,48.70
2022-08-12T11:48:51.308Z,47.12
2022-08-12T11:49:35.136Z,43.16
2022-08-12T11:50:35.137Z,41.16
2022-08-12T11:51:38.792Z,41.25
2022-08-12T11:52:55.756Z,40.86
2022-08-12T11:53:58.256Z,41.83
2022-08-12T11:54:35.163Z,43.02
2022-08-12T11:55:35.174Z,42.72
2022-08-12T11:56:38.269Z,43.51
2022-08-12T11:58:19.782Z,45.29
2022-08-12T12:01:05.662Z,45.00
2022-08-12T12:02:03.066Z,40.94
2022-08-12T12:02:35.266Z,41.83
2022-08-12T12:03:45.692Z,42.82
2022-08-12T12:04:35.217Z,41.24
2022-08-12T12:05:41.954Z,39.85
2022-08-12T12:06:35.233Z,42.82
2022-08-12T12:08:38.489Z,40.74
2022-08-12T12:08:38.901Z,41.04
2022-08-12T12:09:42.868Z,38.96
2022-08-12T12:10:35.254Z,38.47
2022-08-12T12:11:49.134Z,38.15
2022-08-12T12:12:35.266Z,39.95
2022-08-12T12:14:08.032Z,40.63
2022-08-12T12:14:38.146Z,42.03
2022-08-12T12:15:40.640Z,41.33
2022-08-12T12:16:38.259Z,43.51
2022-08-12T12:17:38.339Z,43.02
2022-08-12T12:18:35.300Z,40.07
2022-08-12T12:19:39.709Z,41.16
2022-08-12T12:20:35.313Z,43.24
2022-08-12T12:21:47.437Z,43.63
2022-08-12T12:22:35.323Z,45.12
2022-08-12T12:23:36.308Z,44.92
2022-08-12T12:24:35.380Z,45.14
2022-08-12T12:25:59.514Z,44.54
2022-08-12T12:26:38.341Z,41.77
2022-08-12T12:27:59.301Z,43.06
2022-08-12T12:28:35.489Z,42.88
2022-08-12T12:30:19.075Z,43.48
2022-08-12T12:30:35.381Z,45.26
2022-08-12T12:32:10.659Z,42.09
2022-08-12T12:32:35.385Z,43.38
2022-08-12T12:33:57.479Z,41.00
2022-08-12T12:34:35.390Z,41.10
2022-08-12T12:36:19.832Z,39.00
2022-08-12T12:36:35.403Z,40.09
2022-08-12T12:38:04.436Z,41.97
2022-08-12T12:38:35.417Z,40.68
2022-08-12T12:39:54.797Z,39.99
2022-08-12T12:40:35.428Z,40.88
2022-08-12T12:42:42.443Z,40.09
2022-08-12T12:42:45.247Z,38.90
2022-08-12T12:43:43.052Z,39.77
2022-08-12T12:44:41.939Z,42.35
2022-08-12T12:45:35.709Z,42.74
2022-08-12T12:46:35.458Z,43.35
2022-08-12T12:47:35.466Z,44.02
2022-08-12T12:48:35.472Z,42.86
2022-08-12T12:49:35.479Z,43.46
2022-08-12T12:50:42.384Z,43.65
2022-08-12T12:51:48.657Z,42.86
2022-08-12T12:52:35.496Z,40.09
2022-08-12T12:54:07.453Z,38.40
2022-08-12T12:54:35.504Z,39.79
2022-08-12T12:55:36.071Z,38.80
2022-08-12T12:56:35.642Z,39.10
2022-08-12T12:57:36.191Z,38.78